CEB331 RPLL-RPVK
Flight info
| Callsign | CEB331 |
|---|---|
| Flight time | 0h 46m |
| Altitude | 27000 |
| Route | VERDE2V VERDE W24 TAPER TAPER1R |
| Aircraft | A20N/M-SDE2E3FGHIRWXY/LB1 |
Departure
| Time | 2026-04-21 15:55 |
|---|---|
| Airport | Ninoy Aquino International Airport (RPLL) |
Arrival
| Time | 2026-04-21 16:42 |
|---|---|
| Airport | Kalibo International Airport (RPVK) |
| Time | Latitude | Longitude | Altitude | Speed | Heading |
|---|---|---|---|---|---|
| 2026-04-21 15:35 | 14.52420 | 121.00742 | 82 ft | 0 kts | 44° |
| 2026-04-21 15:44 | 14.52411 | 121.00733 | 82 ft | 2 kts | 44° |
| 2026-04-21 15:45 | 14.52400 | 121.00723 | 82 ft | 2 kts | 45° |
| 2026-04-21 15:45 | 14.52389 | 121.00712 | 82 ft | 2 kts | 44° |
| 2026-04-21 15:45 | 14.52379 | 121.00701 | 82 ft | 2 kts | 44° |
| 2026-04-21 15:45 | 14.52368 | 121.00691 | 82 ft | 2 kts | 44° |
| 2026-04-21 15:46 | 14.52358 | 121.00680 | 82 ft | 0 kts | 45° |
| 2026-04-21 15:46 | 14.52351 | 121.00674 | 82 ft | 2 kts | 9° |
| 2026-04-21 15:46 | 14.52338 | 121.00677 | 82 ft | 0 kts | 321° |
| 2026-04-21 15:46 | 14.52334 | 121.00681 | 82 ft | 1 kts | 312° |
| 2026-04-21 15:47 | 14.52332 | 121.00684 | 82 ft | 0 kts | 314° |
| 2026-04-21 15:50 | 14.52335 | 121.00680 | 82 ft | 3 kts | 314° |
| 2026-04-21 15:51 | 14.52354 | 121.00661 | 82 ft | 4 kts | 316° |
| 2026-04-21 15:51 | 14.52381 | 121.00634 | 82 ft | 6 kts | 317° |
| 2026-04-21 15:51 | 14.52416 | 121.00600 | 82 ft | 7 kts | 315° |
| 2026-04-21 15:51 | 14.52457 | 121.00557 | 82 ft | 8 kts | 314° |
| 2026-04-21 15:52 | 14.52490 | 121.00510 | 82 ft | 7 kts | 278° |
| 2026-04-21 15:52 | 14.52463 | 121.00462 | 82 ft | 7 kts | 225° |
| 2026-04-21 15:52 | 14.52452 | 121.00451 | 82 ft | 0 kts | 225° |
| 2026-04-21 15:53 | 14.52451 | 121.00450 | 82 ft | 0 kts | 225° |
| 2026-04-21 15:53 | 14.52445 | 121.00444 | 82 ft | 1 kts | 225° |
| 2026-04-21 15:53 | 14.52432 | 121.00430 | 82 ft | 3 kts | 225° |
| 2026-04-21 15:53 | 14.52412 | 121.00409 | 82 ft | 4 kts | 225° |
| 2026-04-21 15:54 | 14.52379 | 121.00400 | 82 ft | 6 kts | 163° |
| 2026-04-21 15:54 | 14.52342 | 121.00428 | 82 ft | 7 kts | 136° |
| 2026-04-21 15:54 | 14.52298 | 121.00472 | 82 ft | 14 kts | 135° |
| 2026-04-21 15:54 | 14.52051 | 121.00727 | 82 ft | 87 kts | 134° |
| 2026-04-21 15:55 | 14.51462 | 121.01334 | 83 ft | 148 kts | 134° |
| 2026-04-21 15:55 | 14.50667 | 121.02139 | 451 ft | 163 kts | 134° |
| 2026-04-21 15:55 | 14.49871 | 121.02960 | 1069 ft | 163 kts | 133° |
| 2026-04-21 15:55 | 14.49083 | 121.03778 | 1747 ft | 162 kts | 131° |
| 2026-04-21 15:56 | 14.48279 | 121.04617 | 2194 ft | 174 kts | 131° |
| 2026-04-21 15:56 | 14.47386 | 121.05554 | 2623 ft | 189 kts | 133° |
| 2026-04-21 15:56 | 14.46256 | 121.06350 | 2993 ft | 214 kts | 164° |
| 2026-04-21 15:56 | 14.44706 | 121.06410 | 3537 ft | 231 kts | 182° |
| 2026-04-21 15:57 | 14.43059 | 121.06240 | 4067 ft | 248 kts | 184° |
| 2026-04-21 15:57 | 14.41268 | 121.06068 | 4590 ft | 267 kts | 182° |
| 2026-04-21 15:57 | 14.39362 | 121.05931 | 5227 ft | 279 kts | 181° |
| 2026-04-21 15:57 | 14.37404 | 121.05826 | 6076 ft | 283 kts | 181° |
| 2026-04-21 15:58 | 14.35458 | 121.05740 | 6924 ft | 285 kts | 181° |
| 2026-04-21 15:58 | 14.33474 | 121.05665 | 7772 ft | 288 kts | 180° |
| 2026-04-21 15:58 | 14.31459 | 121.05595 | 8607 ft | 291 kts | 180° |
| 2026-04-21 15:58 | 14.29436 | 121.05528 | 9430 ft | 294 kts | 180° |
| 2026-04-21 15:59 | 14.27379 | 121.05464 | 10218 ft | 297 kts | 180° |
| 2026-04-21 15:59 | 14.25268 | 121.05402 | 10766 ft | 310 kts | 180° |
| 2026-04-21 15:59 | 14.23031 | 121.05337 | 11135 ft | 328 kts | 180° |
| 2026-04-21 15:59 | 14.20668 | 121.05267 | 11486 ft | 346 kts | 180° |
| 2026-04-21 16:00 | 14.18241 | 121.05196 | 12031 ft | 355 kts | 180° |
| 2026-04-21 16:00 | 14.15740 | 121.05121 | 12712 ft | 359 kts | 180° |
| 2026-04-21 16:00 | 14.13236 | 121.05046 | 13372 ft | 363 kts | 180° |
| 2026-04-21 16:00 | 14.10698 | 121.04971 | 14002 ft | 367 kts | 180° |
| 2026-04-21 16:01 | 14.08124 | 121.04896 | 14616 ft | 370 kts | 180° |
| 2026-04-21 16:01 | 14.05560 | 121.04822 | 15214 ft | 373 kts | 180° |
| 2026-04-21 16:01 | 14.02945 | 121.04745 | 15801 ft | 376 kts | 181° |
| 2026-04-21 16:01 | 14.00304 | 121.04667 | 16379 ft | 379 kts | 181° |
| 2026-04-21 16:02 | 13.97673 | 121.04588 | 16916 ft | 382 kts | 181° |
| 2026-04-21 16:02 | 13.95004 | 121.04509 | 17437 ft | 384 kts | 181° |
| 2026-04-21 16:02 | 13.92300 | 121.04428 | 17960 ft | 387 kts | 181° |
| 2026-04-21 16:02 | 13.89580 | 121.04347 | 18478 ft | 389 kts | 181° |
| 2026-04-21 16:03 | 13.86850 | 121.04266 | 18982 ft | 391 kts | 181° |
| 2026-04-21 16:03 | 13.84115 | 121.04185 | 19461 ft | 394 kts | 181° |
| 2026-04-21 16:03 | 13.81354 | 121.04104 | 19948 ft | 396 kts | 181° |
| 2026-04-21 16:03 | 13.78613 | 121.04022 | 20523 ft | 396 kts | 181° |
| 2026-04-21 16:04 | 13.75846 | 121.03939 | 21053 ft | 396 kts | 181° |
| 2026-04-21 16:04 | 13.73099 | 121.03857 | 21527 ft | 399 kts | 181° |
| 2026-04-21 16:04 | 13.70308 | 121.03774 | 21986 ft | 401 kts | 181° |
| 2026-04-21 16:04 | 13.67485 | 121.03692 | 22445 ft | 404 kts | 181° |
| 2026-04-21 16:05 | 13.64674 | 121.03608 | 22903 ft | 406 kts | 181° |
| 2026-04-21 16:05 | 13.61814 | 121.03525 | 23372 ft | 409 kts | 181° |
| 2026-04-21 16:05 | 13.58948 | 121.03442 | 23834 ft | 411 kts | 181° |
| 2026-04-21 16:05 | 13.56078 | 121.03357 | 24286 ft | 414 kts | 182° |
| 2026-04-21 16:06 | 13.53192 | 121.03343 | 24730 ft | 416 kts | 175° |
| 2026-04-21 16:06 | 13.50362 | 121.03889 | 25150 ft | 419 kts | 163° |
| 2026-04-21 16:06 | 13.47669 | 121.05076 | 25581 ft | 422 kts | 150° |
| 2026-04-21 16:06 | 13.45180 | 121.06734 | 25995 ft | 425 kts | 146° |
| 2026-04-21 16:07 | 13.41935 | 121.09058 | 26500 ft | 429 kts | 146° |
| 2026-04-21 16:07 | 13.40314 | 121.10219 | 26755 ft | 431 kts | 146° |
| 2026-04-21 16:07 | 13.37825 | 121.11986 | 27012 ft | 433 kts | 146° |
| 2026-04-21 16:07 | 13.35325 | 121.13749 | 27026 ft | 433 kts | 146° |
| 2026-04-21 16:08 | 13.30370 | 121.17226 | 27035 ft | 432 kts | 146° |
| 2026-04-21 16:08 | 13.27891 | 121.18963 | 27033 ft | 432 kts | 146° |
| 2026-04-21 16:08 | 13.25397 | 121.20712 | 27028 ft | 432 kts | 146° |
| 2026-04-21 16:09 | 13.22926 | 121.22445 | 27016 ft | 432 kts | 147° |
| 2026-04-21 16:09 | 13.20439 | 121.24189 | 27006 ft | 432 kts | 147° |
| 2026-04-21 16:09 | 13.17958 | 121.25926 | 26998 ft | 432 kts | 147° |
| 2026-04-21 16:09 | 13.15467 | 121.27670 | 26999 ft | 432 kts | 147° |
| 2026-04-21 16:10 | 13.12971 | 121.29421 | 27001 ft | 433 kts | 147° |
| 2026-04-21 16:10 | 13.10476 | 121.31168 | 27004 ft | 432 kts | 147° |
| 2026-04-21 16:10 | 13.08013 | 121.32893 | 27004 ft | 432 kts | 146° |
| 2026-04-21 16:10 | 13.05514 | 121.34642 | 27005 ft | 432 kts | 147° |
| 2026-04-21 16:11 | 13.03018 | 121.36391 | 27006 ft | 432 kts | 147° |
| 2026-04-21 16:11 | 13.00538 | 121.38126 | 27003 ft | 432 kts | 147° |
| 2026-04-21 16:11 | 12.98065 | 121.39855 | 27002 ft | 432 kts | 147° |
| 2026-04-21 16:11 | 12.95569 | 121.41602 | 27000 ft | 432 kts | 147° |
| 2026-04-21 16:12 | 12.93096 | 121.43330 | 26954 ft | 428 kts | 146° |
| 2026-04-21 16:12 | 12.90654 | 121.45038 | 26593 ft | 424 kts | 146° |
| 2026-04-21 16:12 | 12.88219 | 121.46740 | 25986 ft | 423 kts | 146° |
| 2026-04-21 16:12 | 12.85770 | 121.48450 | 25409 ft | 420 kts | 146° |
| 2026-04-21 16:13 | 12.83372 | 121.50124 | 24888 ft | 417 kts | 146° |
| 2026-04-21 16:13 | 12.80983 | 121.51792 | 24374 ft | 413 kts | 146° |
| 2026-04-21 16:13 | 12.78603 | 121.53453 | 23851 ft | 410 kts | 146° |
| 2026-04-21 16:13 | 12.76267 | 121.55084 | 23354 ft | 406 kts | 146° |
| 2026-04-21 16:14 | 12.73941 | 121.56708 | 22857 ft | 402 kts | 145° |
| 2026-04-21 16:14 | 12.71666 | 121.58295 | 22390 ft | 398 kts | 145° |
| 2026-04-21 16:14 | 12.69355 | 121.59907 | 21881 ft | 395 kts | 145° |
| 2026-04-21 16:14 | 12.67097 | 121.61484 | 21378 ft | 393 kts | 145° |
| 2026-04-21 16:15 | 12.64849 | 121.63052 | 20887 ft | 390 kts | 145° |
| 2026-04-21 16:15 | 12.62629 | 121.64600 | 20404 ft | 387 kts | 145° |
| 2026-04-21 16:15 | 12.60416 | 121.66143 | 19909 ft | 384 kts | 145° |
| 2026-04-21 16:15 | 12.58192 | 121.67693 | 19423 ft | 381 kts | 145° |
| 2026-04-21 16:16 | 12.56030 | 121.69201 | 18937 ft | 379 kts | 145° |
| 2026-04-21 16:16 | 12.53850 | 121.70720 | 18453 ft | 376 kts | 145° |
| 2026-04-21 16:16 | 12.51703 | 121.72214 | 18129 ft | 372 kts | 145° |
| 2026-04-21 16:16 | 12.49565 | 121.73704 | 17896 ft | 373 kts | 145° |
| 2026-04-21 16:17 | 12.47420 | 121.75198 | 17661 ft | 371 kts | 144° |
| 2026-04-21 16:17 | 12.45261 | 121.76701 | 17427 ft | 371 kts | 144° |
| 2026-04-21 16:17 | 12.43133 | 121.78183 | 17198 ft | 369 kts | 144° |
| 2026-04-21 16:17 | 12.41018 | 121.79653 | 16970 ft | 368 kts | 144° |
| 2026-04-21 16:18 | 12.38909 | 121.81119 | 16727 ft | 367 kts | 144° |
| 2026-04-21 16:18 | 12.36790 | 121.82613 | 16388 ft | 365 kts | 142° |
| 2026-04-21 16:18 | 12.34792 | 121.84178 | 15980 ft | 362 kts | 140° |
| 2026-04-21 16:18 | 12.32825 | 121.85770 | 15552 ft | 360 kts | 140° |
| 2026-04-21 16:19 | 12.30860 | 121.87371 | 15105 ft | 359 kts | 140° |
| 2026-04-21 16:19 | 12.28936 | 121.88934 | 14673 ft | 357 kts | 140° |
| 2026-04-21 16:19 | 12.26995 | 121.90511 | 14245 ft | 354 kts | 139° |
| 2026-04-21 16:19 | 12.25061 | 121.92082 | 13827 ft | 352 kts | 139° |
| 2026-04-21 16:20 | 12.23158 | 121.93627 | 13415 ft | 349 kts | 139° |
| 2026-04-21 16:20 | 12.21253 | 121.95172 | 12979 ft | 347 kts | 139° |
| 2026-04-21 16:20 | 12.19371 | 121.96700 | 12567 ft | 344 kts | 139° |
| 2026-04-21 16:20 | 12.17514 | 121.98206 | 12167 ft | 341 kts | 139° |
| 2026-04-21 16:21 | 12.15638 | 121.99728 | 11772 ft | 338 kts | 139° |
| 2026-04-21 16:21 | 12.13816 | 122.01205 | 11377 ft | 335 kts | 139° |
| 2026-04-21 16:21 | 12.11989 | 122.02685 | 10995 ft | 332 kts | 139° |
| 2026-04-21 16:21 | 12.10192 | 122.04141 | 10620 ft | 328 kts | 139° |
| 2026-04-21 16:22 | 12.08562 | 122.05727 | 10415 ft | 315 kts | 127° |
| 2026-04-21 16:22 | 12.07366 | 122.07512 | 10292 ft | 300 kts | 117° |
| 2026-04-21 16:22 | 12.06414 | 122.09366 | 10165 ft | 288 kts | 115° |
| 2026-04-21 16:22 | 12.05525 | 122.11173 | 9986 ft | 279 kts | 114° |
| 2026-04-21 16:23 | 12.04669 | 122.12917 | 9649 ft | 277 kts | 114° |
| 2026-04-21 16:23 | 12.03801 | 122.14679 | 9320 ft | 275 kts | 115° |
| 2026-04-21 16:23 | 12.02948 | 122.16403 | 9003 ft | 272 kts | 115° |
| 2026-04-21 16:23 | 12.02091 | 122.18129 | 8697 ft | 269 kts | 115° |
| 2026-04-21 16:24 | 12.01246 | 122.19827 | 8390 ft | 267 kts | 115° |
| 2026-04-21 16:24 | 12.00409 | 122.21505 | 8080 ft | 265 kts | 115° |
| 2026-04-21 16:24 | 11.99567 | 122.23193 | 7765 ft | 264 kts | 115° |
| 2026-04-21 16:24 | 11.98744 | 122.24838 | 7446 ft | 262 kts | 115° |
| 2026-04-21 16:25 | 11.97915 | 122.26501 | 7124 ft | 261 kts | 115° |
| 2026-04-21 16:25 | 11.97097 | 122.28137 | 6815 ft | 260 kts | 115° |
| 2026-04-21 16:25 | 11.96276 | 122.29778 | 6506 ft | 259 kts | 115° |
| 2026-04-21 16:25 | 11.95455 | 122.31420 | 6205 ft | 257 kts | 115° |
| 2026-04-21 16:26 | 11.94645 | 122.33042 | 5905 ft | 256 kts | 115° |
| 2026-04-21 16:26 | 11.93845 | 122.34642 | 5613 ft | 254 kts | 115° |
| 2026-04-21 16:26 | 11.93032 | 122.36266 | 5319 ft | 253 kts | 115° |
| 2026-04-21 16:26 | 11.92236 | 122.37855 | 5030 ft | 251 kts | 115° |
| 2026-04-21 16:27 | 11.91451 | 122.39423 | 4739 ft | 250 kts | 115° |
| 2026-04-21 16:27 | 11.90661 | 122.41001 | 4445 ft | 249 kts | 115° |
| 2026-04-21 16:27 | 11.89814 | 122.42558 | 4145 ft | 249 kts | 122° |
| 2026-04-21 16:27 | 11.88698 | 122.43923 | 3853 ft | 250 kts | 133° |
| 2026-04-21 16:28 | 11.87405 | 122.45110 | 3591 ft | 248 kts | 136° |
| 2026-04-21 16:28 | 11.86111 | 122.46242 | 3444 ft | 240 kts | 136° |
| 2026-04-21 16:28 | 11.84873 | 122.47322 | 3414 ft | 226 kts | 136° |
| 2026-04-21 16:28 | 11.83704 | 122.48345 | 3386 ft | 213 kts | 136° |
| 2026-04-21 16:29 | 11.82620 | 122.49299 | 3337 ft | 202 kts | 135° |
| 2026-04-21 16:29 | 11.81559 | 122.50236 | 3318 ft | 198 kts | 135° |
| 2026-04-21 16:29 | 11.80423 | 122.50954 | 3166 ft | 193 kts | 164° |
| 2026-04-21 16:29 | 11.79142 | 122.50708 | 2978 ft | 189 kts | 213° |
| 2026-04-21 16:30 | 11.78268 | 122.49760 | 2875 ft | 177 kts | 230° |
| 2026-04-21 16:30 | 11.77527 | 122.48811 | 2728 ft | 168 kts | 230° |
| 2026-04-21 16:30 | 11.76789 | 122.47890 | 2469 ft | 166 kts | 229° |
| 2026-04-21 16:30 | 11.76037 | 122.46983 | 2259 ft | 166 kts | 228° |
| 2026-04-21 16:31 | 11.75286 | 122.46095 | 2043 ft | 165 kts | 228° |
| 2026-04-21 16:31 | 11.74531 | 122.45211 | 1927 ft | 166 kts | 228° |
| 2026-04-21 16:31 | 11.73790 | 122.44347 | 1647 ft | 159 kts | 228° |
| 2026-04-21 16:31 | 11.73078 | 122.43517 | 1398 ft | 149 kts | 227° |
| 2026-04-21 16:32 | 11.72400 | 122.42730 | 1201 ft | 147 kts | 227° |
| 2026-04-21 16:32 | 11.71734 | 122.41958 | 1009 ft | 144 kts | 228° |
| 2026-04-21 16:32 | 11.71076 | 122.41195 | 819 ft | 142 kts | 228° |
| 2026-04-21 16:32 | 11.70420 | 122.40434 | 617 ft | 141 kts | 228° |
| 2026-04-21 16:33 | 11.69787 | 122.39693 | 394 ft | 138 kts | 229° |
| 2026-04-21 16:33 | 11.69149 | 122.38944 | 200 ft | 136 kts | 229° |
| 2026-04-21 16:33 | 11.68530 | 122.38223 | 46 ft | 133 kts | 229° |
| 2026-04-21 16:33 | 11.67960 | 122.37543 | 127 ft | 126 kts | 227° |
| 2026-04-21 16:34 | 11.67356 | 122.36855 | 564 ft | 138 kts | 226° |
| 2026-04-21 16:34 | 11.66690 | 122.36101 | 1116 ft | 148 kts | 226° |
| 2026-04-21 16:34 | 11.65882 | 122.35484 | 1737 ft | 149 kts | 188° |
| 2026-04-21 16:34 | 11.64943 | 122.35683 | 2362 ft | 138 kts | 133° |
| 2026-04-21 16:35 | 11.64542 | 122.36497 | 2902 ft | 132 kts | 87° |
| 2026-04-21 16:35 | 11.64735 | 122.37406 | 3422 ft | 135 kts | 72° |
| 2026-04-21 16:35 | 11.65003 | 122.38339 | 3884 ft | 143 kts | 72° |
| 2026-04-21 16:35 | 11.65279 | 122.39327 | 3927 ft | 146 kts | 73° |
| 2026-04-21 16:36 | 11.65550 | 122.40326 | 3800 ft | 146 kts | 73° |
| 2026-04-21 16:36 | 11.65819 | 122.41328 | 3679 ft | 145 kts | 73° |
| 2026-04-21 16:36 | 11.66083 | 122.42322 | 3548 ft | 144 kts | 73° |
| 2026-04-21 16:36 | 11.66338 | 122.43298 | 3281 ft | 143 kts | 74° |
| 2026-04-21 16:37 | 11.66603 | 122.44270 | 2954 ft | 143 kts | 68° |
| 2026-04-21 16:37 | 11.67067 | 122.45160 | 2641 ft | 142 kts | 58° |
| 2026-04-21 16:37 | 11.67618 | 122.45997 | 2261 ft | 141 kts | 50° |
| 2026-04-21 16:37 | 11.68480 | 122.46381 | 1967 ft | 141 kts | 358° |
| 2026-04-21 16:38 | 11.69452 | 122.46207 | 1980 ft | 140 kts | 356° |
| 2026-04-21 16:38 | 11.70423 | 122.46092 | 1971 ft | 140 kts | 359° |
| 2026-04-21 16:38 | 11.71393 | 122.46011 | 1966 ft | 140 kts | 0° |
| 2026-04-21 16:38 | 11.72379 | 122.45938 | 1962 ft | 140 kts | 0° |
| 2026-04-21 16:39 | 11.73327 | 122.45731 | 1936 ft | 144 kts | 330° |
| 2026-04-21 16:39 | 11.73857 | 122.44872 | 1871 ft | 151 kts | 278° |
| 2026-04-21 16:39 | 11.73564 | 122.43888 | 1561 ft | 147 kts | 228° |
| 2026-04-21 16:39 | 11.72864 | 122.43134 | 1361 ft | 147 kts | 224° |
| 2026-04-21 16:40 | 11.72152 | 122.42374 | 1143 ft | 145 kts | 226° |
| 2026-04-21 16:40 | 11.71469 | 122.41618 | 942 ft | 143 kts | 226° |
| 2026-04-21 16:40 | 11.70811 | 122.40874 | 751 ft | 141 kts | 227° |
| 2026-04-21 16:40 | 11.70158 | 122.40123 | 554 ft | 140 kts | 227° |
| 2026-04-21 16:41 | 11.69518 | 122.39387 | 314 ft | 137 kts | 229° |
| 2026-04-21 16:41 | 11.68897 | 122.38658 | 124 ft | 135 kts | 229° |
| 2026-04-21 16:41 | 11.68294 | 122.37943 | 39 ft | 123 kts | 226° |
| 2026-04-21 16:41 | 11.67823 | 122.37402 | 39 ft | 77 kts | 228° |
| 2026-04-21 16:42 | 11.67549 | 122.37086 | 43 ft | 22 kts | 230° |
| 2026-04-21 16:42 | 11.67509 | 122.37046 | 43 ft | 3 kts | 297° |
| 2026-04-21 16:42 | 11.67556 | 122.37082 | 43 ft | 19 kts | 54° |
| 2026-04-21 16:42 | 11.67652 | 122.37202 | 41 ft | 22 kts | 48° |